createdAt,value
2018-10-18T00:01:21.065Z,14.90
2018-10-18T00:03:49.636Z,13.07
2018-10-18T00:06:18.447Z,14.80
2018-10-18T00:08:47.119Z,15.00
2018-10-18T00:11:15.645Z,14.53
2018-10-18T00:13:44.428Z,13.97
2018-10-18T00:16:13.178Z,14.83
2018-10-18T00:18:41.720Z,15.43
2018-10-18T00:21:10.465Z,14.60
2018-10-18T00:23:38.909Z,15.23
2018-10-18T00:26:07.478Z,18.57
2018-10-18T00:28:36.449Z,15.03
2018-10-18T00:31:04.989Z,13.93
2018-10-18T00:33:33.733Z,14.73
2018-10-18T00:36:02.528Z,16.47
2018-10-18T00:38:31.277Z,16.80
2018-10-18T00:41:00.110Z,15.27
2018-10-18T00:43:28.877Z,16.40
2018-10-18T00:45:57.370Z,16.33
2018-10-18T00:48:26.153Z,16.77
2018-10-18T00:50:54.931Z,16.17
2018-10-18T00:53:23.765Z,17.07
2018-10-18T00:55:52.607Z,18.47
2018-10-18T00:58:21.577Z,18.27
2018-10-18T01:00:50.111Z,18.13
2018-10-18T01:03:18.877Z,17.23
2018-10-18T01:05:47.729Z,23.10
2018-10-18T01:08:16.324Z,18.57
2018-10-18T01:10:44.929Z,18.23
2018-10-18T01:13:13.489Z,17.90
2018-10-18T01:15:41.933Z,17.60
2018-10-18T01:18:10.548Z,18.43
2018-10-18T01:20:39.109Z,18.40
2018-10-18T01:23:08.143Z,18.27
2018-10-18T01:25:37.051Z,18.23
2018-10-18T01:28:05.797Z,18.03
2018-10-18T01:30:34.249Z,19.93
2018-10-18T01:33:03.162Z,19.20
2018-10-18T01:35:31.716Z,18.13
2018-10-18T01:38:00.174Z,25.30
2018-10-18T01:40:28.912Z,19.90
2018-10-18T01:42:57.621Z,20.30
2018-10-18T01:45:26.187Z,19.83
2018-10-18T01:47:54.912Z,20.40
2018-10-18T01:50:23.494Z,19.60
2018-10-18T01:52:51.995Z,21.63
2018-10-18T01:55:20.613Z,20.93
2018-10-18T01:57:49.267Z,24.40
2018-10-18T02:00:17.781Z,20.87
2018-10-18T02:02:46.409Z,20.87
2018-10-18T02:05:15.277Z,21.70
2018-10-18T02:07:43.713Z,22.20
2018-10-18T02:10:12.461Z,23.27
2018-10-18T02:12:41.308Z,22.93
2018-10-18T02:15:11.154Z,24.57
2018-10-18T02:17:40.114Z,25.07
2018-10-18T02:20:09.708Z,24.63
2018-10-18T02:22:38.287Z,26.00
2018-10-18T02:25:07.237Z,24.77
2018-10-18T02:27:36.166Z,23.30
2018-10-18T02:30:05.482Z,24.23
2018-10-18T02:32:34.317Z,27.90
2018-10-18T02:35:03.188Z,29.73
2018-10-18T02:37:31.645Z,25.73
2018-10-18T02:40:00.741Z,25.87
2018-10-18T02:42:29.765Z,24.13
2018-10-18T02:44:58.278Z,24.43
2018-10-18T02:47:27.528Z,25.60
2018-10-18T02:49:56.487Z,25.03
2018-10-18T02:52:24.994Z,23.90
2018-10-18T02:54:53.514Z,30.83
2018-10-18T02:57:22.504Z,27.47
2018-10-18T02:59:50.943Z,25.03
2018-10-18T03:02:19.754Z,27.10
2018-10-18T03:04:48.642Z,23.23
2018-10-18T03:07:17.202Z,22.20
2018-10-18T03:09:45.887Z,23.63
2018-10-18T03:12:14.732Z,27.27
2018-10-18T03:14:43.110Z,23.93
2018-10-18T03:17:11.887Z,21.93
2018-10-18T03:19:40.553Z,27.30
2018-10-18T03:22:08.993Z,22.87
2018-10-18T03:24:37.514Z,24.03
2018-10-18T03:27:06.768Z,22.43
2018-10-18T03:29:35.206Z,24.43
2018-10-18T03:32:03.729Z,24.03
2018-10-18T03:34:32.526Z,26.87
2018-10-18T03:37:00.953Z,23.03
2018-10-18T03:39:29.657Z,22.87
2018-10-18T03:41:58.234Z,26.07
2018-10-18T03:44:26.678Z,22.93
2018-10-18T03:46:55.489Z,22.23
2018-10-18T03:49:24.571Z,24.07
2018-10-18T03:51:53.005Z,26.20
2018-10-18T03:54:21.554Z,23.10
2018-10-18T03:56:50.308Z,20.47
2018-10-18T03:59:19.805Z,19.90
2018-10-18T04:01:48.525Z,21.00
2018-10-18T04:04:17.375Z,22.97
2018-10-18T04:06:46.086Z,19.97
2018-10-18T04:09:14.613Z,23.90
2018-10-18T04:11:43.432Z,22.77
2018-10-18T04:14:12.016Z,21.67
2018-10-18T04:16:40.582Z,21.73
2018-10-18T04:19:09.396Z,18.90
2018-10-18T04:21:38.316Z,18.47
2018-10-18T04:24:07.046Z,20.53
2018-10-18T04:26:35.777Z,19.37
2018-10-18T04:29:04.297Z,17.57
2018-10-18T04:31:33.121Z,16.40
2018-10-18T04:34:01.868Z,19.77
2018-10-18T04:36:30.390Z,18.53
2018-10-18T04:38:59.128Z,21.20
2018-10-18T04:41:27.880Z,18.53
2018-10-18T04:43:56.387Z,19.63
2018-10-18T04:46:25.187Z,18.57
2018-10-18T04:48:53.827Z,19.87
2018-10-18T04:51:22.247Z,21.00
2018-10-18T04:53:50.789Z,17.50
2018-10-18T04:56:19.856Z,20.03
2018-10-18T04:58:48.356Z,17.10
2018-10-18T05:01:17.348Z,17.67
2018-10-18T05:03:46.133Z,16.80
2018-10-18T05:06:14.596Z,16.83
2018-10-18T05:08:43.349Z,17.67
2018-10-18T05:11:11.967Z,15.57
2018-10-18T05:13:40.445Z,15.10
2018-10-18T05:16:09.090Z,15.97
2018-10-18T05:18:37.877Z,13.93
2018-10-18T05:21:06.549Z,15.43
2018-10-18T05:23:35.206Z,15.13
2018-10-18T05:26:04.079Z,17.13
2018-10-18T05:28:32.533Z,16.23
2018-10-18T05:31:01.281Z,14.67
2018-10-18T05:33:29.827Z,15.17
2018-10-18T05:35:58.269Z,17.87
2018-10-18T05:38:27.012Z,16.13
2018-10-18T05:40:55.626Z,13.60
2018-10-18T05:43:24.997Z,14.87
2018-10-18T05:45:55.013Z,13.83
2018-10-18T05:48:23.717Z,13.80
2018-10-18T05:50:52.182Z,12.90
2018-10-18T05:53:21.035Z,14.23
2018-10-18T05:55:49.741Z,15.57
2018-10-18T05:58:18.340Z,12.07
2018-10-18T06:00:46.965Z,12.33
2018-10-18T06:03:15.704Z,14.07
2018-10-18T06:05:44.178Z,13.00
2018-10-18T06:08:13.885Z,15.97
2018-10-18T06:10:53.785Z,14.87
2018-10-18T06:13:22.791Z,13.40
2018-10-18T06:15:51.250Z,19.07
2018-10-18T06:18:19.793Z,15.77
2018-10-18T06:20:48.492Z,15.33
2018-10-18T06:23:17.044Z,16.10
2018-10-18T06:25:45.686Z,19.53
2018-10-18T06:28:14.242Z,18.90
2018-10-18T06:30:42.689Z,19.23
2018-10-18T06:33:11.795Z,21.20
2018-10-18T06:35:40.601Z,21.73
2018-10-18T06:38:09.055Z,29.83
2018-10-18T06:40:37.981Z,27.00
2018-10-18T06:43:06.949Z,28.97
2018-10-18T06:45:35.399Z,23.63
2018-10-18T06:48:04.079Z,25.63
2018-10-18T06:50:33.267Z,19.47
2018-10-18T06:53:01.840Z,24.23
2018-10-18T06:55:30.726Z,22.87
2018-10-18T06:57:59.690Z,26.87
2018-10-18T07:00:28.246Z,24.47
2018-10-18T07:02:57.210Z,29.60
2018-10-18T07:05:26.401Z,28.60
2018-10-18T07:07:54.871Z,26.67
2018-10-18T07:10:23.542Z,26.70
2018-10-18T07:12:52.418Z,25.07
2018-10-18T07:15:20.886Z,22.97
2018-10-18T07:17:49.942Z,23.70
2018-10-18T07:20:18.510Z,27.57
2018-10-18T07:22:46.946Z,22.87
2018-10-18T07:25:16.439Z,23.13
2018-10-18T07:27:45.010Z,18.50
2018-10-18T07:30:14.647Z,15.13
2018-10-18T07:32:43.454Z,20.10
2018-10-18T07:35:13.471Z,22.13
2018-10-18T07:37:41.977Z,20.73
2018-10-18T07:40:13.789Z,18.50
2018-10-18T07:42:42.797Z,17.33
2018-10-18T07:45:12.701Z,17.87
2018-10-18T07:47:41.702Z,20.60
2018-10-18T07:50:10.686Z,14.90
2018-10-18T07:52:39.357Z,16.97
2018-10-18T07:55:08.747Z,13.90
2018-10-18T07:57:37.357Z,18.07
2018-10-18T08:00:08.066Z,16.67
2018-10-18T08:02:37.010Z,16.40
2018-10-18T08:05:06.792Z,16.13
2018-10-18T08:07:35.526Z,17.23
2018-10-18T08:10:04.596Z,17.87
2018-10-18T08:12:33.670Z,20.23
2018-10-18T08:15:02.122Z,16.40
2018-10-18T08:17:30.791Z,16.97
2018-10-18T08:19:59.462Z,14.50
2018-10-18T08:22:27.923Z,15.67
2018-10-18T08:24:56.747Z,15.00
2018-10-18T08:27:25.254Z,15.67
2018-10-18T08:29:53.890Z,15.37
2018-10-18T08:32:22.652Z,18.00
2018-10-18T08:34:51.189Z,16.53
2018-10-18T08:37:19.723Z,13.13
2018-10-18T08:39:48.221Z,12.63
2018-10-18T08:42:17.318Z,16.73
2018-10-18T08:44:45.852Z,12.93
2018-10-18T08:47:14.653Z,13.27
2018-10-18T08:49:43.514Z,15.33
2018-10-18T08:52:11.997Z,13.13
2018-10-18T08:54:40.646Z,10.23
2018-10-18T08:57:09.466Z,14.00
2018-10-18T08:59:38.174Z,12.70
2018-10-18T09:02:07.297Z,13.83
2018-10-18T09:04:36.662Z,10.83
2018-10-18T09:07:05.200Z,11.47
2018-10-18T09:09:34.558Z,11.13
2018-10-18T09:12:03.142Z,8.17
2018-10-18T09:14:31.637Z,8.93
2018-10-18T09:17:00.539Z,9.57
2018-10-18T09:19:29.072Z,9.30
2018-10-18T09:21:58.017Z,9.70
2018-10-18T09:24:26.889Z,8.87
2018-10-18T09:26:55.560Z,8.27
2018-10-18T09:29:24.005Z,7.20
2018-10-18T09:31:52.734Z,7.17
2018-10-18T09:34:21.682Z,9.10
2018-10-18T09:36:50.133Z,5.40
2018-10-18T09:39:18.805Z,7.53
2018-10-18T09:41:47.917Z,7.37
2018-10-18T09:44:16.430Z,6.43
2018-10-18T09:46:45.478Z,7.60
2018-10-18T09:49:14.424Z,7.07
2018-10-18T09:51:42.859Z,8.10
2018-10-18T09:54:11.735Z,6.45
2018-10-18T09:56:40.649Z,6.37
2018-10-18T09:59:09.063Z,4.30
2018-10-18T10:01:43.242Z,5.70
2018-10-18T10:04:11.807Z,6.62
2018-10-18T10:06:40.288Z,4.60
2018-10-18T10:09:09.410Z,5.08
2018-10-18T10:11:38.479Z,4.50
2018-10-18T10:14:06.867Z,5.67
2018-10-18T10:16:35.534Z,4.80
2018-10-18T10:19:04.496Z,4.25
2018-10-18T10:21:32.945Z,5.00
2018-10-18T10:24:01.568Z,6.75
2018-10-18T10:26:30.449Z,8.63
2018-10-18T10:28:58.901Z,5.95
2018-10-18T10:31:27.833Z,5.40
2018-10-18T10:33:56.712Z,4.40
2018-10-18T10:36:25.274Z,5.12
2018-10-18T10:38:54.536Z,5.62
2018-10-18T10:41:23.263Z,5.03
2018-10-18T10:43:51.698Z,5.25
2018-10-18T10:46:20.360Z,4.85
2018-10-18T10:48:48.913Z,4.10
2018-10-18T10:51:17.701Z,3.33
2018-10-18T10:53:46.560Z,4.20
2018-10-18T10:56:15.458Z,4.20
2018-10-18T10:58:44.406Z,4.00
2018-10-18T11:01:20.606Z,4.15
2018-10-18T11:03:50.101Z,4.83
2018-10-18T11:06:18.648Z,4.12
2018-10-18T11:08:47.434Z,3.47
2018-10-18T11:11:16.593Z,4.15
2018-10-18T11:13:45.622Z,4.58
2018-10-18T11:16:21.341Z,3.30
2018-10-18T11:18:49.782Z,4.95
2018-10-18T11:21:19.178Z,3.67
2018-10-18T11:23:48.303Z,4.45
2018-10-18T11:26:16.810Z,3.45
2018-10-18T11:28:45.354Z,3.15
2018-10-18T11:31:13.989Z,4.60
2018-10-18T11:33:42.564Z,4.40
2018-10-18T11:36:11.169Z,3.90
2018-10-18T11:38:40.095Z,3.22
2018-10-18T11:41:08.533Z,4.95
2018-10-18T11:43:37.001Z,3.10
2018-10-18T11:46:06.835Z,3.80
2018-10-18T11:48:35.255Z,3.70
2018-10-18T11:51:03.766Z,2.60
2018-10-18T11:53:33.139Z,3.62
2018-10-18T11:56:01.632Z,3.47
2018-10-18T11:58:30.066Z,2.75
2018-10-18T12:00:59.238Z,2.77
2018-10-18T12:03:27.662Z,4.30
2018-10-18T12:05:56.097Z,2.95
2018-10-18T12:08:24.777Z,3.65
2018-10-18T12:10:53.281Z,2.50
2018-10-18T12:13:21.831Z,2.87
2018-10-18T12:15:50.749Z,5.08
2018-10-18T12:18:19.301Z,4.60
2018-10-18T12:20:47.885Z,4.50
2018-10-18T12:23:17.106Z,5.22
2018-10-18T12:25:45.509Z,4.15
2018-10-18T12:28:14.005Z,2.77
2018-10-18T12:30:42.673Z,4.28
2018-10-18T12:33:11.185Z,3.10
2018-10-18T12:35:40.020Z,4.03
2018-10-18T12:38:09.199Z,2.40
2018-10-18T12:40:37.796Z,3.50
2018-10-18T12:43:06.150Z,2.77
2018-10-18T12:45:34.905Z,3.45
2018-10-18T12:48:03.669Z,4.25
2018-10-18T12:50:32.204Z,3.60
2018-10-18T12:53:01.027Z,3.50
2018-10-18T12:55:29.461Z,2.27
2018-10-18T12:57:57.918Z,3.45
2018-10-18T13:00:26.726Z,4.05
2018-10-18T13:02:55.170Z,1.65
2018-10-18T13:05:23.624Z,3.60
2018-10-18T13:07:52.298Z,2.47
2018-10-18T13:10:20.742Z,1.75
2018-10-18T13:12:49.273Z,1.40
2018-10-18T13:15:18.550Z,1.42
2018-10-18T13:17:47.133Z,1.75
2018-10-18T13:20:15.715Z,3.70
2018-10-18T13:22:44.885Z,3.52
2018-10-18T13:25:13.417Z,2.58
2018-10-18T13:27:41.989Z,2.10
2018-10-18T13:30:11.646Z,2.40
2018-10-18T13:32:40.816Z,1.62
2018-10-18T13:35:09.909Z,3.45
2018-10-18T13:37:38.847Z,1.95
2018-10-18T13:40:08.100Z,1.98
2018-10-18T13:42:36.625Z,1.22
2018-10-18T13:45:06.493Z,3.95
2018-10-18T13:47:35.422Z,3.20
2018-10-18T13:50:04.023Z,1.75
2018-10-18T13:52:33.021Z,1.05
2018-10-18T13:55:01.667Z,0.65
2018-10-18T13:57:30.193Z,1.92
2018-10-18T14:00:10.039Z,1.27
2018-10-18T14:02:38.557Z,4.45
2018-10-18T14:05:07.253Z,2.67
2018-10-18T14:07:35.849Z,1.52
2018-10-18T14:10:04.447Z,1.55
2018-10-18T14:12:33.141Z,1.12
2018-10-18T14:15:01.818Z,1.10
2018-10-18T14:17:30.452Z,1.50
2018-10-18T14:19:58.922Z,1.92
2018-10-18T14:22:27.624Z,2.33
2018-10-18T14:24:56.053Z,1.15
2018-10-18T14:27:24.773Z,1.37
2018-10-18T14:29:53.830Z,1.22
2018-10-18T14:32:22.370Z,1.10
2018-10-18T14:34:50.846Z,4.65
2018-10-18T14:37:19.578Z,3.00
2018-10-18T14:39:48.072Z,1.75
2018-10-18T14:42:16.672Z,0.70
2018-10-18T14:44:50.359Z,2.30
2018-10-18T14:47:20.510Z,1.83
2018-10-18T14:49:49.086Z,1.03
2018-10-18T14:52:18.043Z,4.60
2018-10-18T14:54:46.743Z,1.10
2018-10-18T14:57:16.158Z,1.77
2018-10-18T14:59:45.191Z,1.63
2018-10-18T15:02:14.266Z,3.10
2018-10-18T15:04:42.867Z,3.57
2018-10-18T15:07:13.834Z,1.57
2018-10-18T15:09:42.290Z,2.73
2018-10-18T15:12:11.146Z,2.80
2018-10-18T15:14:39.886Z,3.03
2018-10-18T15:17:08.358Z,5.90
2018-10-18T15:19:37.117Z,2.27
2018-10-18T15:22:06.543Z,0.80
2018-10-18T15:24:35.237Z,1.27
2018-10-18T15:27:04.648Z,0.67
2018-10-18T15:29:33.500Z,0.97
2018-10-18T15:32:08.708Z,3.77
2018-10-18T15:34:37.469Z,0.50
2018-10-18T15:37:06.185Z,0.50
2018-10-18T15:39:34.969Z,2.00
2018-10-18T15:42:03.511Z,1.00
2018-10-18T15:44:31.933Z,2.67
2018-10-18T15:47:00.799Z,0.77
2018-10-18T15:49:29.331Z,1.07
2018-10-18T15:51:57.785Z,1.33
2018-10-18T15:54:26.412Z,1.33
2018-10-18T15:56:54.924Z,1.47
2018-10-18T15:59:23.484Z,1.73
2018-10-18T16:01:52.535Z,3.47
2018-10-18T16:04:21.113Z,0.93
2018-10-18T16:06:49.579Z,3.43
2018-10-18T16:09:18.086Z,1.37
2018-10-18T16:11:46.853Z,0.60
2018-10-18T16:14:15.431Z,2.50
2018-10-18T16:16:43.837Z,2.33
2018-10-18T16:19:12.638Z,2.57
2018-10-18T16:21:41.081Z,1.90
2018-10-18T16:24:09.803Z,3.23
2018-10-18T16:26:38.737Z,1.87
2018-10-18T16:29:07.393Z,4.57
2018-10-18T16:31:36.050Z,2.40
2018-10-18T16:34:04.694Z,1.20
2018-10-18T16:36:33.202Z,2.37
2018-10-18T16:39:01.733Z,0.80
2018-10-18T16:41:30.554Z,3.07
2018-10-18T16:43:58.811Z,3.17
2018-10-18T16:46:27.563Z,0.87
2018-10-18T16:48:56.248Z,1.43
2018-10-18T16:51:24.737Z,4.67
2018-10-18T16:53:53.731Z,1.30
2018-10-18T16:56:22.625Z,2.03
2018-10-18T16:58:51.260Z,2.73
2018-10-18T17:01:19.874Z,2.17
2018-10-18T17:03:48.461Z,2.20
2018-10-18T17:06:16.917Z,3.37
2018-10-18T17:08:45.459Z,3.47
2018-10-18T17:11:14.400Z,0.80
2018-10-18T17:13:42.823Z,3.33
2018-10-18T17:16:11.956Z,2.93
2018-10-18T17:18:40.646Z,1.63
2018-10-18T17:21:09.138Z,1.60
2018-10-18T17:23:37.887Z,2.10
2018-10-18T17:26:06.948Z,2.20
2018-10-18T17:28:35.405Z,1.93
2018-10-18T17:31:04.208Z,2.53
2018-10-18T17:33:33.069Z,2.23
2018-10-18T17:36:01.520Z,2.10
2018-10-18T17:38:30.341Z,3.20
2018-10-18T17:40:58.950Z,3.70
2018-10-18T17:43:27.430Z,3.93
2018-10-18T17:45:56.374Z,4.13
2018-10-18T17:48:25.012Z,4.20
2018-10-18T17:50:53.485Z,1.87
2018-10-18T17:53:22.450Z,0.87
2018-10-18T17:55:51.413Z,6.23
2018-10-18T17:58:19.928Z,4.30
2018-10-18T18:00:48.826Z,3.20
2018-10-18T18:03:17.563Z,4.27
2018-10-18T18:05:46.029Z,3.07
2018-10-18T18:08:14.704Z,2.37
2018-10-18T18:10:43.572Z,2.27
2018-10-18T18:13:13.398Z,2.30
2018-10-18T18:15:41.961Z,4.07
2018-10-18T18:18:10.710Z,4.40
2018-10-18T18:20:39.254Z,1.70
2018-10-18T18:23:09.002Z,6.33
2018-10-18T18:25:37.764Z,1.97
2018-10-18T18:28:06.605Z,4.33
2018-10-18T18:30:35.528Z,10.50
2018-10-18T18:33:04.206Z,8.60
2018-10-18T18:35:32.637Z,8.97
2018-10-18T18:38:01.213Z,16.93
2018-10-18T18:40:29.819Z,15.77
2018-10-18T18:43:04.981Z,14.90
2018-10-18T18:45:36.725Z,5.97
2018-10-18T18:48:06.129Z,6.17
2018-10-18T18:50:34.717Z,8.40
2018-10-18T18:53:03.366Z,6.63
2018-10-18T18:55:31.776Z,3.83
2018-10-18T18:58:00.281Z,6.60
2018-10-18T19:00:28.875Z,11.97
2018-10-18T19:02:57.378Z,3.97
2018-10-18T19:05:25.868Z,8.87
2018-10-18T19:07:54.857Z,6.67
2018-10-18T19:10:23.292Z,4.97
2018-10-18T19:12:51.806Z,6.83
2018-10-18T19:15:20.657Z,4.30
2018-10-18T19:17:49.153Z,6.17
2018-10-18T19:20:17.834Z,13.80
2018-10-18T19:22:46.824Z,9.63
2018-10-18T19:25:18.165Z,8.17
2018-10-18T19:27:47.422Z,9.67
2018-10-18T19:30:16.186Z,8.20
2018-10-18T19:32:44.641Z,9.43
2018-10-18T19:35:13.369Z,6.60
2018-10-18T19:37:41.862Z,8.30
2018-10-18T19:40:10.956Z,9.27
2018-10-18T19:42:40.761Z,9.10
2018-10-18T19:45:09.901Z,10.27
2018-10-18T19:47:38.682Z,10.40
2018-10-18T19:50:08.295Z,8.77
2018-10-18T19:52:36.957Z,8.90
2018-10-18T19:55:06.190Z,11.10
2018-10-18T19:57:34.925Z,7.60
2018-10-18T20:00:03.556Z,6.97
2018-10-18T20:02:31.999Z,9.63
2018-10-18T20:05:01.078Z,14.50
2018-10-18T20:07:29.503Z,8.47
2018-10-18T20:09:57.965Z,8.07
2018-10-18T20:12:26.884Z,11.10
2018-10-18T20:14:55.405Z,8.93
2018-10-18T20:17:24.141Z,8.57
2018-10-18T20:19:52.860Z,11.40
2018-10-18T20:22:21.457Z,9.70
2018-10-18T20:24:49.974Z,11.20
2018-10-18T20:27:18.944Z,6.57
2018-10-18T20:29:47.412Z,11.57
2018-10-18T20:32:16.313Z,9.90
2018-10-18T20:34:44.999Z,6.93
2018-10-18T20:37:13.442Z,7.77
2018-10-18T20:39:42.127Z,5.60
2018-10-18T20:42:11.104Z,7.73
2018-10-18T20:44:39.596Z,5.13
2018-10-18T20:47:08.218Z,6.90
2018-10-18T20:49:37.419Z,4.07
2018-10-18T20:52:06.137Z,4.10
2018-10-18T20:54:34.641Z,6.87
2018-10-18T20:57:03.851Z,3.30
2018-10-18T20:59:32.405Z,2.20
2018-10-18T21:02:00.903Z,3.80
2018-10-18T21:04:29.901Z,4.53
2018-10-18T21:06:58.466Z,3.53
2018-10-18T21:09:26.885Z,2.47
2018-10-18T21:11:55.975Z,2.63
2018-10-18T21:14:24.401Z,2.50
2018-10-18T21:16:52.997Z,3.30
2018-10-18T21:19:21.650Z,2.30
2018-10-18T21:21:50.141Z,3.43
2018-10-18T21:24:18.603Z,3.57
2018-10-18T21:26:47.733Z,1.50
2018-10-18T21:29:16.167Z,1.70
2018-10-18T21:31:44.579Z,4.40
2018-10-18T21:34:13.872Z,3.50
2018-10-18T21:36:42.265Z,5.67
2018-10-18T21:39:10.714Z,4.47
2018-10-18T21:41:39.801Z,3.47
2018-10-18T21:44:08.233Z,4.60
2018-10-18T21:46:36.657Z,4.77
2018-10-18T21:49:05.705Z,2.50
2018-10-18T21:51:34.403Z,2.37
2018-10-18T21:54:04.830Z,5.90
2018-10-18T21:56:33.822Z,4.13
2018-10-18T21:59:02.434Z,3.53
2018-10-18T22:01:30.856Z,5.73
2018-10-18T22:03:59.866Z,3.73
2018-10-18T22:06:28.271Z,2.43
2018-10-18T22:08:56.759Z,3.03
2018-10-18T22:11:25.908Z,4.93
2018-10-18T22:13:54.524Z,3.73
2018-10-18T22:16:22.922Z,3.47
2018-10-18T22:18:52.223Z,3.67
2018-10-18T22:21:20.631Z,3.83
2018-10-18T22:23:49.081Z,2.20
2018-10-18T22:26:17.977Z,3.10
2018-10-18T22:28:46.411Z,3.63
2018-10-18T22:31:14.811Z,3.60
2018-10-18T22:33:43.780Z,1.70
2018-10-18T22:36:12.370Z,2.30
2018-10-18T22:38:40.786Z,4.33
2018-10-18T22:41:09.820Z,6.50
2018-10-18T22:43:38.275Z,5.40
2018-10-18T22:46:06.866Z,2.93
2018-10-18T22:48:35.830Z,2.67
2018-10-18T22:51:04.264Z,3.47
2018-10-18T22:53:32.822Z,3.13
2018-10-18T22:56:01.463Z,3.27
2018-10-18T22:58:29.854Z,3.77
2018-10-18T23:00:58.278Z,1.93
2018-10-18T23:03:27.278Z,4.17
2018-10-18T23:05:55.698Z,2.20
2018-10-18T23:08:24.293Z,3.47
2018-10-18T23:10:53.181Z,4.07
2018-10-18T23:13:21.618Z,2.10
2018-10-18T23:15:50.030Z,8.13
2018-10-18T23:18:25.646Z,3.50
2018-10-18T23:20:54.084Z,3.23
2018-10-18T23:23:22.691Z,4.70
2018-10-18T23:25:51.217Z,5.07
2018-10-18T23:28:19.630Z,3.10
2018-10-18T23:30:48.126Z,1.67
2018-10-18T23:33:16.954Z,2.83
2018-10-18T23:35:45.358Z,2.03
2018-10-18T23:38:14.454Z,4.13
2018-10-18T23:40:43.319Z,2.63
2018-10-18T23:43:11.767Z,5.43
2018-10-18T23:45:40.291Z,3.47
2018-10-18T23:48:08.972Z,4.50
2018-10-18T23:50:37.374Z,5.33
2018-10-18T23:53:06.287Z,4.17
2018-10-18T23:55:35.438Z,3.03
2018-10-18T23:58:03.878Z,1.93
